KOLF/OLF METAR and TAF weather

Enter ICAO airport designator
Station Type Date Time Source
KOLF METAR 2021/05/14 06:53 UTC NOAA

KOLF 140653Z AUTO 24003KT 10SM CLR 07/03 A3007 RMK AO2 SLP188 T00720033 402170006


Station Type Date Time Source
KOLF Decoded METAR 2021/05/14 06:53 UTC NOAA

WOLF POINT CLAYTON AIRPORT, MT, United States (KOLF) 48-06N 105-35W 604M
May 14, 2021 - 02:53 AM EDT / 2021.05.14 0653 UTC
Wind: from the WSW (240 degrees) at 3 MPH (3 KT):0
Visibility: 10 mile(s):0
Sky conditions: clear
Temperature: 45.0 F (7.2 C)
Dew Point: 37.9 F (3.3 C)
Relative Humidity: 76%
Pressure (altimeter): 30.07 in. Hg (1018 hPa)
ob: KOLF 140653Z AUTO 24003KT 10SM CLR 07/03 A3007 RMK AO2 SLP188 T00720033 402170006
cycle: 7

Station Type Date Time Source
KOLF TAF 2021/05/14 06:22 UTC NOAA

TAF KOLF 140520Z 1406/1506 VRB05KT P6SM SCT090

Example: see airport list